createdAt,value
2018-04-12T00:02:01.375Z,53.43
2018-04-12T00:04:29.782Z,53.59
2018-04-12T00:06:58.181Z,53.62
2018-04-12T00:09:26.544Z,54.05
2018-04-12T00:11:54.919Z,54.00
2018-04-12T00:14:23.286Z,54.10
2018-04-12T00:16:52.163Z,53.97
2018-04-12T00:19:20.524Z,53.82
2018-04-12T00:21:48.928Z,53.75
2018-04-12T00:24:17.299Z,54.08
2018-04-12T00:26:45.669Z,54.53
2018-04-12T00:29:14.066Z,54.54
2018-04-12T00:31:42.445Z,54.55
2018-04-12T00:34:11.157Z,54.24
2018-04-12T00:36:39.516Z,54.12
2018-04-12T00:39:09.259Z,53.91
2018-04-12T00:41:37.634Z,53.73
2018-04-12T00:44:06.016Z,53.74
2018-04-12T00:46:34.397Z,53.57
2018-04-12T00:49:02.942Z,53.51
2018-04-12T00:51:31.949Z,53.51
2018-04-12T00:54:05.620Z,53.43
2018-04-12T00:56:33.999Z,53.34
2018-04-12T00:59:02.373Z,53.33
2018-04-12T01:01:30.741Z,53.38
2018-04-12T01:03:59.139Z,53.29
2018-04-12T01:06:27.540Z,53.26
2018-04-12T01:08:55.905Z,53.24
2018-04-12T01:11:24.272Z,53.22
2018-04-12T01:13:52.635Z,53.22
2018-04-12T01:16:21.041Z,53.34
2018-04-12T01:18:49.191Z,53.39
2018-04-12T01:21:17.570Z,53.54
2018-04-12T01:23:45.982Z,53.63
2018-04-12T01:26:14.353Z,53.78
2018-04-12T01:28:42.725Z,54.00
2018-04-12T01:31:11.129Z,54.12
2018-04-12T01:33:39.496Z,54.23
2018-04-12T01:36:08.582Z,54.21
2018-04-12T01:38:36.964Z,54.18
2018-04-12T01:41:05.337Z,54.23
2018-04-12T01:43:33.720Z,54.36
2018-04-12T01:46:02.098Z,54.47
2018-04-12T01:48:30.488Z,54.58
2018-04-12T01:53:57.500Z,54.75
2018-04-12T01:56:25.891Z,54.86
2018-04-12T01:58:54.252Z,54.97
2018-04-12T02:01:22.617Z,55.12
2018-04-12T02:03:50.981Z,55.40
2018-04-12T02:06:19.381Z,55.43
2018-04-12T02:08:47.756Z,55.62
2018-04-12T02:11:15.888Z,55.88
2018-04-12T02:13:45.426Z,56.16
2018-04-12T02:16:13.798Z,56.37
2018-04-12T02:18:42.828Z,56.54
2018-04-12T02:21:11.211Z,56.56
2018-04-12T02:23:39.591Z,56.66
2018-04-12T02:26:07.971Z,56.82
2018-04-12T02:28:36.533Z,56.67
2018-04-12T02:31:04.925Z,56.65
2018-04-12T02:33:33.297Z,56.73
2018-04-12T02:36:01.666Z,56.66
2018-04-12T02:38:29.801Z,56.66
2018-04-12T02:40:58.382Z,56.82
2018-04-12T02:43:26.749Z,56.75
2018-04-12T02:45:55.125Z,56.71
2018-04-12T02:48:23.532Z,56.55
2018-04-12T02:50:51.903Z,56.49
2018-04-12T02:53:20.282Z,56.48
2018-04-12T02:55:48.664Z,56.68
2018-04-12T02:58:17.075Z,56.84
2018-04-12T03:00:46.113Z,56.91
2018-04-12T03:03:14.479Z,56.95
2018-04-12T03:05:43.193Z,56.96
2018-04-12T03:08:11.569Z,56.99
2018-04-12T03:10:39.608Z,57.04
2018-04-12T03:13:07.979Z,57.11
2018-04-12T03:15:36.358Z,57.02
2018-04-12T03:18:04.745Z,56.98
2018-04-12T03:20:33.296Z,56.85
2018-04-12T03:23:01.674Z,56.81
2018-04-12T03:25:30.076Z,56.53
2018-04-12T03:27:58.455Z,56.51
2018-04-12T03:30:26.833Z,56.62
2018-04-12T03:32:55.214Z,56.49
2018-04-12T03:35:23.593Z,56.63
2018-04-12T03:37:51.966Z,56.75
2018-04-12T03:40:20.357Z,56.85
2018-04-12T03:42:48.743Z,57.08
2018-04-12T03:45:17.706Z,57.12
2018-04-12T03:47:46.091Z,57.28
2018-04-12T03:50:14.475Z,57.22
2018-04-12T03:52:42.845Z,57.20
2018-04-12T03:55:13.539Z,57.06
2018-04-12T03:57:41.926Z,56.94
2018-04-12T04:00:10.093Z,56.93
2018-04-12T04:02:38.459Z,56.89
2018-04-12T04:05:14.813Z,56.81
2018-04-12T04:07:43.320Z,56.97
2018-04-12T04:10:16.876Z,56.95
2018-04-12T04:12:45.240Z,56.94
2018-04-12T04:15:24.484Z,56.91
2018-04-12T04:18:04.465Z,57.03
2018-04-12T04:20:43.858Z,57.09
2018-04-12T04:23:12.242Z,57.23
2018-04-12T04:25:40.625Z,57.34
2018-04-12T04:28:09.057Z,57.83
2018-04-12T04:30:37.429Z,58.04
2018-04-12T04:33:05.794Z,58.08
2018-04-12T04:35:34.160Z,58.13
2018-04-12T04:38:02.550Z,58.18
2018-04-12T04:40:30.917Z,58.21
2018-04-12T04:42:59.335Z,58.40
2018-04-12T04:45:27.714Z,58.36
2018-04-12T04:47:55.872Z,58.21
2018-04-12T04:50:24.443Z,58.28
2018-04-12T04:52:52.842Z,58.13
2018-04-12T04:55:21.221Z,58.20
2018-04-12T04:57:49.374Z,58.15
2018-04-12T05:00:17.757Z,58.00
2018-04-12T05:02:45.899Z,57.90
2018-04-12T05:05:14.209Z,57.86
2018-04-12T05:07:42.371Z,57.94
2018-04-12T05:10:12.490Z,57.93
2018-04-12T05:12:40.881Z,58.10
2018-04-12T05:15:13.144Z,58.26
2018-04-12T05:17:41.235Z,58.37
2018-04-12T05:20:12.353Z,58.44
2018-04-12T05:22:40.492Z,58.30
2018-04-12T05:25:12.179Z,58.52
2018-04-12T05:27:40.571Z,58.59
2018-04-12T05:30:16.669Z,58.47
2018-04-12T05:32:45.078Z,58.12
2018-04-12T05:35:13.446Z,58.03
2018-04-12T05:37:41.829Z,58.18
2018-04-12T05:40:12.895Z,58.05
2018-04-12T05:42:41.289Z,57.88
2018-04-12T05:45:11.183Z,57.26
2018-04-12T05:47:39.550Z,56.54
2018-04-12T05:50:12.963Z,56.11
2018-04-12T05:52:41.812Z,56.02
2018-04-12T05:55:16.197Z,55.93
2018-04-12T05:57:44.569Z,55.72
2018-04-12T06:00:15.980Z,55.58
2018-04-12T06:02:44.352Z,55.25
2018-04-12T06:05:17.062Z,55.23
2018-04-12T06:07:45.437Z,55.08
2018-04-12T06:10:13.819Z,55.12
2018-04-12T06:12:42.199Z,55.09
2018-04-12T06:15:12.512Z,55.25
2018-04-12T06:17:40.889Z,55.26
2018-04-12T06:20:10.145Z,55.01
2018-04-12T06:22:38.509Z,54.79
2018-04-12T06:25:09.961Z,54.92
2018-04-12T06:27:38.373Z,54.65
2018-04-12T06:30:13.421Z,53.59
2018-04-12T06:32:41.827Z,53.27
2018-04-12T06:35:16.746Z,52.64
2018-04-12T06:37:45.112Z,52.87
2018-04-12T06:40:15.218Z,52.31
2018-04-12T06:42:43.588Z,52.78
2018-04-12T06:45:15.874Z,52.42
2018-04-12T06:47:44.324Z,52.31
2018-04-12T06:50:15.230Z,52.17
2018-04-12T06:52:45.045Z,51.68
2018-04-12T06:55:15.907Z,51.42
2018-04-12T06:57:44.278Z,51.18
2018-04-12T07:00:13.009Z,49.62
2018-04-12T07:02:41.374Z,49.13
2018-04-12T07:05:15.077Z,48.84
2018-04-12T07:07:43.450Z,47.83
2018-04-12T07:10:15.006Z,47.79
2018-04-12T07:12:43.384Z,48.01
2018-04-12T07:15:13.881Z,47.49
2018-04-12T07:17:42.248Z,46.95
2018-04-12T07:20:14.453Z,46.62
2018-04-12T07:22:42.848Z,46.48
2018-04-12T07:25:11.515Z,46.04
2018-04-12T07:27:39.663Z,46.12
2018-04-12T07:30:16.493Z,46.38
2018-04-12T07:32:44.865Z,45.89
2018-04-12T07:35:15.802Z,46.10
2018-04-12T07:37:43.941Z,45.63
2018-04-12T07:40:16.161Z,45.77
2018-04-12T07:42:44.534Z,45.44
2018-04-12T07:45:12.922Z,45.44
2018-04-12T07:47:41.061Z,45.44
2018-04-12T07:50:13.108Z,45.62
2018-04-12T07:52:41.499Z,45.07
2018-04-12T07:55:10.014Z,45.27
2018-04-12T07:57:38.193Z,44.92
2018-04-12T08:00:12.232Z,44.61
2018-04-12T08:02:40.606Z,44.41
2018-04-12T08:05:11.347Z,44.62
2018-04-12T08:07:39.712Z,44.53
2018-04-12T08:10:10.915Z,44.26
2018-04-12T08:12:39.296Z,44.26
2018-04-12T08:15:09.024Z,43.96
2018-04-12T08:17:37.386Z,43.57
2018-04-12T08:20:06.678Z,43.71
2018-04-12T08:22:37.796Z,43.09
2018-04-12T08:25:14.773Z,43.37
2018-04-12T08:27:43.157Z,42.81
2018-04-12T08:30:16.816Z,43.22
2018-04-12T08:32:45.196Z,42.74
2018-04-12T08:35:13.573Z,43.01
2018-04-12T08:37:41.942Z,42.41
2018-04-12T08:40:12.736Z,42.11
2018-04-12T08:42:41.110Z,42.59
2018-04-12T08:45:16.426Z,42.05
2018-04-12T08:47:44.824Z,42.15
2018-04-12T08:50:13.252Z,41.06
2018-04-12T08:52:41.638Z,41.01
2018-04-12T08:55:15.238Z,40.83
2018-04-12T08:57:43.629Z,40.65
2018-04-12T09:00:14.454Z,40.51
2018-04-12T09:02:42.831Z,39.87
2018-04-12T09:05:16.905Z,40.45
2018-04-12T09:07:45.298Z,39.83
2018-04-12T09:10:13.654Z,39.82
2018-04-12T09:12:42.025Z,39.83
2018-04-12T09:15:13.016Z,39.33
2018-04-12T09:17:41.368Z,39.49
2018-04-12T09:20:16.153Z,39.21
2018-04-12T09:22:44.512Z,38.73
2018-04-12T09:25:18.505Z,39.15
2018-04-12T09:27:46.924Z,38.92
2018-04-12T09:30:15.464Z,38.26
2018-04-12T09:32:43.831Z,38.36
2018-04-12T09:35:12.197Z,37.80
2018-04-12T09:37:40.561Z,37.81
2018-04-12T09:40:09.988Z,37.58
2018-04-12T09:42:38.149Z,37.64
2018-04-12T09:45:07.616Z,38.05
2018-04-12T09:47:35.979Z,37.25
2018-04-12T09:50:04.035Z,37.45
2018-04-12T09:52:32.392Z,36.42
2018-04-12T09:55:00.872Z,34.94
2018-04-12T09:57:29.231Z,34.31
2018-04-12T09:59:57.640Z,33.15
2018-04-12T10:02:29.168Z,32.18
2018-04-12T10:05:00.351Z,31.37
2018-04-12T10:10:37.829Z,31.86
2018-04-12T10:13:06.203Z,32.24
2018-04-12T10:15:34.581Z,32.35
2018-04-12T10:18:02.948Z,31.75
2018-04-12T10:20:31.325Z,30.74
2018-04-12T10:22:59.692Z,29.31
2018-04-12T10:25:28.072Z,29.17
2018-04-12T10:27:56.321Z,29.28
2018-04-12T10:30:24.725Z,29.42
2018-04-12T10:32:53.159Z,29.57
2018-04-12T10:35:21.675Z,30.20
2018-04-12T10:37:50.053Z,29.61
2018-04-12T10:40:18.438Z,29.22
2018-04-12T10:42:46.819Z,29.00
2018-04-12T10:45:14.965Z,28.93
2018-04-12T10:47:43.345Z,29.09
2018-04-12T10:50:11.730Z,29.64
2018-04-12T10:52:40.103Z,28.39
2018-04-12T10:55:08.551Z,28.50
2018-04-12T10:57:36.923Z,29.15
2018-04-12T11:00:05.590Z,30.11
2018-04-12T11:02:33.974Z,30.93
2018-04-12T11:05:02.352Z,30.92
2018-04-12T11:07:30.722Z,31.11
2018-04-12T11:09:59.099Z,31.62
2018-04-12T11:12:27.508Z,31.70
2018-04-12T11:14:55.895Z,31.32
2018-04-12T11:17:24.262Z,31.34
2018-04-12T11:19:52.709Z,32.10
2018-04-12T11:22:21.074Z,32.19
2018-04-12T11:24:49.450Z,32.49
2018-04-12T11:27:17.844Z,32.61
2018-04-12T11:29:46.234Z,32.37
2018-04-12T11:32:14.606Z,31.96
2018-04-12T11:34:43.008Z,31.23
2018-04-12T11:37:11.377Z,31.70
2018-04-12T11:39:39.748Z,31.28
2018-04-12T11:42:08.870Z,31.87
2018-04-12T11:44:37.281Z,31.04
2018-04-12T11:47:05.656Z,30.89
2018-04-12T11:49:34.041Z,31.58
2018-04-12T11:52:02.441Z,31.12
2018-04-12T11:54:30.816Z,31.13
2018-04-12T11:56:59.194Z,25.44
2018-04-12T11:59:27.604Z,24.74
2018-04-12T12:01:55.989Z,25.47
2018-04-12T12:04:24.365Z,25.33
2018-04-12T12:06:52.748Z,24.27
2018-04-12T12:09:21.175Z,24.61
2018-04-12T12:11:49.542Z,23.60
2018-04-12T12:14:17.928Z,24.86
2018-04-12T12:16:46.310Z,25.26
2018-04-12T12:19:14.701Z,24.73
2018-04-12T12:21:43.086Z,25.28
2018-04-12T12:24:11.465Z,25.03
2018-04-12T12:26:39.846Z,25.55
2018-04-12T12:29:08.215Z,25.57
2018-04-12T12:31:36.600Z,25.07
2018-04-12T12:34:04.983Z,24.67
2018-04-12T12:36:33.357Z,23.34
2018-04-12T12:39:01.753Z,24.49
2018-04-12T12:41:30.121Z,23.79
2018-04-12T12:43:58.488Z,23.71
2018-04-12T12:46:26.882Z,24.46
2018-04-12T12:48:55.254Z,24.79
2018-04-12T12:51:23.664Z,24.97
2018-04-12T12:53:52.049Z,25.12
2018-04-12T12:56:20.430Z,24.81
2018-04-12T12:58:48.808Z,25.09
2018-04-12T13:01:17.215Z,25.41
2018-04-12T13:03:45.620Z,25.92
2018-04-12T13:06:14.174Z,25.91
2018-04-12T13:08:42.559Z,25.83
2018-04-12T13:11:10.952Z,26.33
2018-04-12T13:13:39.331Z,26.16
2018-04-12T13:16:07.781Z,26.15
2018-04-12T13:18:36.168Z,26.06
2018-04-12T13:21:04.553Z,26.34
2018-04-12T13:23:32.712Z,26.80
2018-04-12T13:26:01.109Z,27.38
2018-04-12T13:28:29.256Z,26.69
2018-04-12T13:30:57.661Z,26.93
2018-04-12T13:33:26.645Z,26.79
2018-04-12T13:35:55.028Z,26.97
2018-04-12T13:38:23.401Z,27.41
2018-04-12T13:40:51.795Z,27.17
2018-04-12T13:43:20.185Z,27.20
2018-04-12T13:45:48.531Z,27.11
2018-04-12T13:48:16.666Z,27.36
2018-04-12T13:50:45.042Z,26.14
2018-04-12T13:53:13.435Z,26.55
2018-04-12T13:55:41.956Z,27.42
2018-04-12T13:58:10.323Z,27.51
2018-04-12T14:00:38.708Z,27.53
2018-04-12T14:03:07.087Z,27.59
2018-04-12T14:05:35.550Z,27.60
2018-04-12T14:08:03.931Z,27.95
2018-04-12T14:10:32.303Z,27.97
2018-04-12T14:13:00.679Z,28.28
2018-04-12T14:15:29.056Z,28.53
2018-04-12T14:17:57.425Z,28.96
2018-04-12T14:20:25.797Z,28.47
2018-04-12T14:22:54.171Z,28.60
2018-04-12T14:25:22.561Z,28.53
2018-04-12T14:27:50.933Z,28.85
2018-04-12T14:30:19.333Z,27.66
2018-04-12T14:32:47.713Z,28.17
2018-04-12T14:35:16.091Z,26.69
2018-04-12T14:37:44.509Z,27.92
2018-04-12T14:40:13.112Z,27.93
2018-04-12T14:42:41.482Z,28.48
2018-04-12T14:45:09.848Z,29.12
2018-04-12T14:47:38.275Z,28.86
2018-04-12T14:50:06.658Z,28.76
2018-04-12T14:52:35.042Z,27.02
2018-04-12T14:55:03.410Z,26.89
2018-04-12T14:57:31.781Z,26.96
2018-04-12T15:00:00.160Z,26.56
2018-04-12T15:02:28.527Z,26.87
2018-04-12T15:04:56.924Z,27.38
2018-04-12T15:07:25.240Z,28.26
2018-04-12T15:09:53.607Z,28.77
2018-04-12T15:12:21.973Z,28.99
2018-04-12T15:14:50.341Z,29.41
2018-04-12T15:17:18.716Z,29.41
2018-04-12T15:19:47.084Z,29.71
2018-04-12T15:22:15.468Z,29.81
2018-04-12T15:24:43.841Z,30.06
2018-04-12T15:27:12.238Z,29.93
2018-04-12T15:29:40.396Z,30.28
2018-04-12T15:32:09.330Z,30.49
2018-04-12T15:34:37.648Z,30.18
2018-04-12T15:37:05.723Z,30.45
2018-04-12T15:39:34.122Z,30.61
2018-04-12T15:42:02.565Z,31.58
2018-04-12T15:44:30.937Z,32.18
2018-04-12T15:46:59.336Z,32.28
2018-04-12T15:49:27.733Z,31.91
2018-04-12T15:51:56.119Z,32.20
2018-04-12T15:54:24.500Z,32.29
2018-04-12T15:56:52.875Z,32.67
2018-04-12T15:59:21.022Z,33.26
2018-04-12T16:01:49.181Z,33.82
2018-04-12T16:04:17.550Z,34.39
2018-04-12T16:06:46.249Z,35.03
2018-04-12T16:09:14.692Z,35.44
2018-04-12T16:11:43.074Z,36.44
2018-04-12T16:14:11.491Z,37.38
2018-04-12T16:16:40.066Z,37.70
2018-04-12T16:19:08.207Z,37.99
2018-04-12T16:21:36.352Z,38.29
2018-04-12T16:24:04.717Z,38.48
2018-04-12T16:26:33.111Z,38.84
2018-04-12T16:29:01.546Z,39.35
2018-04-12T16:31:29.975Z,39.80
2018-04-12T16:33:58.371Z,39.98
2018-04-12T16:36:26.964Z,40.26
2018-04-12T16:38:55.327Z,40.32
2018-04-12T16:41:23.509Z,40.72
2018-04-12T16:43:51.888Z,40.98
2018-04-12T16:46:20.254Z,41.31
2018-04-12T16:48:48.636Z,41.44
2018-04-12T16:51:16.803Z,41.51
2018-04-12T16:53:45.173Z,41.91
2018-04-12T16:56:13.315Z,42.23
2018-04-12T16:58:41.709Z,42.28
2018-04-12T17:01:10.100Z,42.33
2018-04-12T17:03:38.490Z,42.34
2018-04-12T17:06:07.057Z,42.71
2018-04-12T17:08:35.435Z,42.76
2018-04-12T17:11:03.810Z,42.87
2018-04-12T17:13:32.194Z,42.72
2018-04-12T17:16:00.344Z,42.80
2018-04-12T17:18:28.801Z,42.49
2018-04-12T17:20:57.180Z,42.25
2018-04-12T17:23:25.566Z,42.43
2018-04-12T17:25:53.948Z,42.48
2018-04-12T17:28:22.098Z,42.49
2018-04-12T17:30:50.482Z,42.73
2018-04-12T17:33:18.866Z,42.91
2018-04-12T17:35:47.234Z,42.89
2018-04-12T17:38:15.397Z,42.76
2018-04-12T17:40:43.772Z,42.71
2018-04-12T17:43:12.151Z,42.63
2018-04-12T17:45:40.515Z,42.71
2018-04-12T17:48:08.925Z,43.06
2018-04-12T17:50:37.493Z,43.69
2018-04-12T17:53:05.863Z,43.29
2018-04-12T17:55:34.253Z,43.61
2018-04-12T17:58:02.629Z,43.88
2018-04-12T18:00:31.021Z,44.12
2018-04-12T18:02:59.386Z,44.29
2018-04-12T18:05:27.781Z,44.49
2018-04-12T18:07:56.175Z,44.74
2018-04-12T18:10:24.361Z,45.45
2018-04-12T18:12:52.732Z,46.06
2018-04-12T18:15:21.122Z,46.32
2018-04-12T18:17:49.504Z,46.67
2018-04-12T18:20:17.876Z,46.78
2018-04-12T18:22:46.262Z,46.79
2018-04-12T18:25:14.639Z,46.83
2018-04-12T18:27:43.008Z,46.78
2018-04-12T18:30:11.473Z,46.84
2018-04-12T18:32:39.841Z,47.15
2018-04-12T18:35:10.058Z,47.49
2018-04-12T18:37:38.432Z,47.69
2018-04-12T18:40:06.840Z,47.84
2018-04-12T18:42:35.213Z,48.06
2018-04-12T18:45:03.699Z,48.09
2018-04-12T18:47:34.817Z,48.18
2018-04-12T18:50:03.892Z,48.45
2018-04-12T18:52:33.015Z,48.68
2018-04-12T18:55:01.174Z,49.02
2018-04-12T18:57:29.548Z,49.71
2018-04-12T18:59:57.928Z,49.97
2018-04-12T19:02:26.300Z,50.06
2018-04-12T19:04:54.685Z,50.33
2018-04-12T19:07:23.761Z,50.55
2018-04-12T19:09:52.136Z,50.77
2018-04-12T19:12:20.534Z,50.92
2018-04-12T19:14:48.901Z,50.97
2018-04-12T19:17:17.351Z,51.07
2018-04-12T19:19:45.740Z,51.16
2018-04-12T19:22:14.150Z,51.30
2018-04-12T19:24:42.575Z,51.38
2018-04-12T19:27:10.967Z,51.49
2018-04-12T19:29:39.345Z,51.60
2018-04-12T19:32:07.757Z,51.58
2018-04-12T19:34:36.339Z,51.61
2018-04-12T19:37:04.418Z,51.76
2018-04-12T19:39:32.792Z,51.83
2018-04-12T19:42:01.211Z,51.69
2018-04-12T19:44:29.376Z,51.68
2018-04-12T19:46:57.949Z,51.59
2018-04-12T19:49:26.370Z,51.51
2018-04-12T19:51:54.911Z,51.51
2018-04-12T19:54:23.281Z,51.52
2018-04-12T19:56:51.438Z,51.59
2018-04-12T19:59:19.835Z,51.72
2018-04-12T20:01:48.212Z,51.72
2018-04-12T20:04:16.658Z,51.44
2018-04-12T20:06:45.046Z,51.40
2018-04-12T20:09:13.425Z,51.44
2018-04-12T20:11:42.109Z,51.56
2018-04-12T20:14:10.494Z,51.53
2018-04-12T20:16:38.864Z,51.73
2018-04-12T20:19:07.238Z,51.97
2018-04-12T20:21:35.608Z,52.15
2018-04-12T20:24:04.035Z,52.57
2018-04-12T20:26:32.449Z,52.45
2018-04-12T20:29:00.832Z,53.07
2018-04-12T20:31:29.207Z,52.80
2018-04-12T20:33:57.899Z,53.07
2018-04-12T20:36:26.248Z,52.86
2018-04-12T20:38:54.625Z,53.08
2018-04-12T20:41:23.002Z,53.29
2018-04-12T20:43:51.365Z,53.44
2018-04-12T20:46:19.728Z,53.70
2018-04-12T20:48:48.109Z,53.81
2018-04-12T20:51:16.481Z,53.91
2018-04-12T20:53:44.861Z,54.05
2018-04-12T20:56:13.232Z,53.79
2018-04-12T20:58:41.612Z,53.78
2018-04-12T21:01:09.980Z,53.62
2018-04-12T21:03:38.355Z,53.61
2018-04-12T21:06:06.747Z,53.64
2018-04-12T21:08:35.118Z,53.70
2018-04-12T21:11:03.488Z,53.92
2018-04-12T21:13:31.872Z,53.84
2018-04-12T21:16:00.246Z,54.24
2018-04-12T21:18:28.674Z,54.57
2018-04-12T21:20:57.072Z,55.44
2018-04-12T21:23:25.446Z,55.72
2018-04-12T21:25:53.851Z,56.11
2018-04-12T21:28:22.097Z,56.66
2018-04-12T21:30:50.476Z,57.07
2018-04-12T21:33:18.949Z,57.23
2018-04-12T21:35:47.330Z,56.89
2018-04-12T21:38:15.770Z,56.89
2018-04-12T21:40:44.148Z,56.70
2018-04-12T21:43:12.303Z,56.45
2018-04-12T21:45:40.694Z,56.13
2018-04-12T21:48:09.072Z,56.07
2018-04-12T21:50:37.444Z,55.74
2018-04-12T21:53:05.829Z,55.77
2018-04-12T21:55:34.213Z,55.54
2018-04-12T21:58:02.592Z,55.52
2018-04-12T22:00:30.729Z,55.24
2018-04-12T22:02:59.097Z,54.95
2018-04-12T22:05:28.465Z,54.66
2018-04-12T22:07:57.433Z,54.81
2018-04-12T22:10:25.805Z,54.94
2018-04-12T22:12:54.207Z,55.03
2018-04-12T22:15:22.765Z,55.06
2018-04-12T22:17:51.145Z,55.12
2018-04-12T22:20:19.520Z,55.42
2018-04-12T22:22:47.901Z,55.49
2018-04-12T22:25:16.281Z,55.61
2018-04-12T22:27:44.653Z,55.63
2018-04-12T22:30:13.038Z,55.66
2018-04-12T22:32:41.421Z,56.00
2018-04-12T22:35:09.793Z,56.14
2018-04-12T22:37:38.172Z,56.11
2018-04-12T22:40:10.301Z,56.21
2018-04-12T22:42:38.701Z,56.27
2018-04-12T22:45:07.178Z,56.37
2018-04-12T22:47:35.548Z,56.72
2018-04-12T22:50:03.344Z,56.73
2018-04-12T22:52:31.803Z,57.12
2018-04-12T22:55:00.178Z,57.23
2018-04-12T22:57:28.577Z,57.44
2018-04-12T22:59:56.977Z,57.61
2018-04-12T23:02:25.358Z,57.71
2018-04-12T23:04:53.733Z,57.71
2018-04-12T23:07:22.125Z,57.93
2018-04-12T23:09:50.500Z,58.42
2018-04-12T23:12:18.904Z,59.13
2018-04-12T23:14:47.293Z,59.92
2018-04-12T23:17:15.662Z,60.41
2018-04-12T23:19:44.023Z,61.16
2018-04-12T23:22:12.405Z,61.70
2018-04-12T23:24:40.792Z,61.96
2018-04-12T23:27:08.933Z,62.39
2018-04-12T23:29:37.343Z,62.85
2018-04-12T23:32:05.941Z,63.30
2018-04-12T23:34:34.315Z,63.46
2018-04-12T23:37:02.703Z,63.34
2018-04-12T23:39:31.075Z,63.25
2018-04-12T23:41:59.680Z,63.10
2018-04-12T23:44:28.060Z,62.96
2018-04-12T23:46:56.439Z,62.78
2018-04-12T23:49:24.817Z,62.64
2018-04-12T23:51:53.212Z,62.59
2018-04-12T23:54:21.350Z,62.58
2018-04-12T23:56:49.745Z,62.57
2018-04-12T23:59:18.143Z,62.74
